Time;durP1;ratioP1;P1;durP2;ratioP2;P2;SDS_P1;SDS_P2;PMS_P1;PMS_P2;Temp;Humidity;BMP_temperature;BMP_pressure;BME280_temperature;BME280_humidity;BME280_pressure;Samples;Min_cycle;Max_cycle;Signal;HPM_P1;HPM_P2
2023/12/30 00:02:58;;;;;;;0.00;0.00;;;;;;;8.45;79.53;100096.56;15643391;28;20063;-48
2023/12/30 00:10:32;;;;;;;0.00;0.00;;;;;;;8.35;78.62;100105.03;15645206;28;20045;-50
2023/12/30 00:18:09;;;;;;;0.28;0.28;;;;;;;8.41;78.32;100110.38;15670577;28;20041;-48
2023/12/30 00:25:42;;;;;;;0.00;0.00;;;;;;;8.38;78.20;100070.66;15669921;28;20125;-49
2023/12/30 00:33:17;;;;;;;;;;;;;;;8.16;78.56;100071.97;15669473;28;20038;-50
2023/12/30 00:40:55;;;;;;;0.00;0.00;;;;;;;8.10;79.03;100120.91;15634842;28;19974;-47
2023/12/30 00:48:31;;;;;;;0.00;0.00;;;;;;;7.90;78.97;100108.41;15666709;28;20041;-48
2023/12/30 00:56:08;;;;;;;0.00;0.00;;;;;;;7.88;79.11;100121.16;15647898;28;20398;-50
2023/12/30 01:03:45;;;;;;;0.40;0.10;;;;;;;7.83;80.16;100120.97;15635428;28;20049;-50
2023/12/30 01:11:20;;;;;;;0.00;0.00;;;;;;;7.98;80.00;100141.31;15653737;28;20037;-48
2023/12/30 01:19:02;;;;;;;0.00;0.00;;;;;;;7.92;80.93;100148.28;15650413;28;20106;-48
2023/12/30 01:26:38;;;;;;;0.00;0.00;;;;;;;7.66;81.57;100163.31;15649885;28;20029;-43
2023/12/30 01:34:13;;;;;;;0.00;0.00;;;;;;;7.70;81.40;100178.94;15616013;28;20041;-46
2023/12/30 01:41:49;;;;;;;0.00;0.00;;;;;;;7.90;80.17;100191.25;15642051;28;20498;-48
2023/12/30 01:49:25;;;;;;;0.13;0.13;;;;;;;7.81;79.13;100189.81;15637999;28;20584;-48
2023/12/30 01:57:02;;;;;;;0.08;0.05;;;;;;;7.68;78.83;100190.63;15653641;28;20041;-47
2023/12/30 02:04:40;;;;;;;0.00;0.00;;;;;;;7.67;78.78;100193.50;15641052;28;20041;-49
2023/12/30 02:12:20;;;;;;;0.00;0.00;;;;;;;8.01;76.75;100200.47;15619449;28;20041;-45
2023/12/30 02:19:55;;;;;;;0.00;0.00;;;;;;;7.99;75.85;100175.00;15643492;28;20041;-50
2023/12/30 02:27:29;;;;;;;0.00;0.00;;;;;;;7.59;75.98;100196.38;15657161;28;20120;-46
2023/12/30 02:35:03;;;;;;;0.00;0.00;;;;;;;7.62;75.53;100212.81;15619970;28;20048;-47
2023/12/30 02:42:38;;;;;;;0.00;0.00;;;;;;;7.68;75.04;100195.97;15630291;28;20087;-52
2023/12/30 02:50:14;;;;;;;0.00;0.00;;;;;;;7.50;76.44;100205.59;15647073;28;20132;-51
2023/12/30 02:57:49;;;;;;;0.00;0.00;;;;;;;7.51;75.88;100213.44;15639247;28;20036;-45
2023/12/30 03:05:23;;;;;;;0.00;0.00;;;;;;;7.60;76.01;100220.22;15620170;28;20044;-49
2023/12/30 03:13:07;;;;;;;0.00;0.00;;;;;;;7.53;76.82;100232.72;15636631;28;20045;-46
2023/12/30 03:20:41;;;;;;;0.00;0.00;;;;;;;7.26;77.77;100233.69;15667724;28;20057;-48
2023/12/30 03:28:16;;;;;;;0.00;0.00;;;;;;;7.46;77.10;100237.25;15639202;28;20051;-49
2023/12/30 03:35:51;;;;;;;0.00;0.00;;;;;;;7.29;77.06;100167.38;15646068;28;20069;-47
2023/12/30 03:43:26;;;;;;;0.00;0.00;;;;;;;7.47;77.00;100187.31;15652950;28;20032;-49
2023/12/30 03:51:00;;;;;;;0.00;0.00;;;;;;;7.09;77.82;100201.22;15645561;28;20457;-48
2023/12/30 03:58:35;;;;;;;0.00;0.00;;;;;;;6.92;75.80;100211.41;15663811;28;20036;-54
2023/12/30 04:06:17;;;;;;;0.00;0.00;;;;;;;6.97;74.61;100229.47;15656259;28;20098;-46
2023/12/30 04:13:54;;;;;;;0.00;0.00;;;;;;;7.07;73.73;100232.59;15664904;28;20069;-49
2023/12/30 04:21:28;;;;;;;0.00;0.00;;;;;;;6.96;73.25;100249.19;15660975;28;20045;-45
2023/12/30 04:29:03;;;;;;;0.00;0.00;;;;;;;7.12;72.43;100254.97;15661890;28;20029;-47
2023/12/30 04:36:36;;;;;;;0.00;0.00;;;;;;;6.86;72.87;100257.56;15638266;28;20033;-51
2023/12/30 04:44:11;;;;;;;;;;;;;;;6.78;72.71;100276.38;15659815;28;20142;-46
2023/12/30 04:51:46;;;;;;;0.00;0.00;;;;;;;6.67;72.16;100283.09;15658007;28;19928;-51
2023/12/30 04:59:21;;;;;;;0.28;0.20;;;;;;;6.53;72.00;100287.53;15632357;28;20044;-48
2023/12/30 05:06:54;;;;;;;0.10;0.10;;;;;;;6.54;71.85;100315.00;15666433;28;20540;-47
2023/12/30 05:14:29;;;;;;;0.00;0.00;;;;;;;6.30;72.50;100322.41;15667527;28;20544;-48
2023/12/30 05:22:04;;;;;;;0.10;0.10;;;;;;;6.44;72.85;100339.34;15667719;28;20049;-47
2023/12/30 05:29:39;;;;;;;0.00;0.00;;;;;;;6.43;71.90;100335.00;15637906;28;20103;-51
2023/12/30 05:37:12;;;;;;;0.00;0.00;;;;;;;6.07;73.44;100354.59;15642119;28;20071;-44
2023/12/30 05:44:52;;;;;;;0.00;0.00;;;;;;;5.94;73.77;100370.44;15668868;28;20443;-47
2023/12/30 05:52:28;;;;;;;0.00;0.00;;;;;;;5.94;74.47;100378.44;15671089;28;20041;-47
2023/12/30 06:00:04;;;;;;;0.00;0.00;;;;;;;5.93;74.28;100391.94;15655392;28;20493;-45
2023/12/30 06:07:45;;;;;;;0.00;0.00;;;;;;;5.95;74.00;100409.38;15653496;28;20044;-50
2023/12/30 06:15:21;;;;;;;0.00;0.00;;;;;;;5.77;73.99;100401.75;15662244;28;20044;-47
2023/12/30 06:22:54;;;;;;;0.00;0.00;;;;;;;5.72;74.19;100420.16;15628804;28;20045;-45
2023/12/30 06:30:32;;;;;;;0.00;0.00;;;;;;;5.73;74.23;100437.75;15639507;28;20041;-46
2023/12/30 06:38:06;;;;;;;0.00;0.00;;;;;;;5.95;72.86;100446.69;15660110;22;20041;-48
2023/12/30 06:45:42;;;;;;;0.00;0.00;;;;;;;5.95;73.39;100464.50;15649228;28;20111;-49
2023/12/30 06:53:15;;;;;;;0.00;0.00;;;;;;;5.83;73.00;100480.13;15660378;28;20033;-49
2023/12/30 07:00:50;;;;;;;0.00;0.00;;;;;;;5.46;75.39;100489.84;15661863;28;20040;-51
2023/12/30 07:08:23;;;;;;;0.32;0.20;;;;;;;5.70;74.08;100494.06;15660332;28;20106;-47
2023/12/30 07:15:58;;;;;;;0.00;0.00;;;;;;;6.03;73.63;100515.84;15678287;28;20124;-49
2023/12/30 07:23:31;;;;;;;0.03;0.03;;;;;;;5.75;75.12;100531.63;15678019;28;20268;-50
2023/12/30 07:31:06;;;;;;;0.00;0.00;;;;;;;5.82;74.56;100531.72;15677403;28;20472;-50
2023/12/30 07:38:39;;;;;;;0.00;0.00;;;;;;;5.82;74.83;100545.84;15676211;28;20462;-46
2023/12/30 07:46:14;;;;;;;0.00;0.00;;;;;;;5.72;75.11;100555.13;15675483;28;20041;-47
2023/12/30 07:53:48;;;;;;;0.47;0.38;;;;;;;5.44;75.93;100570.88;15658806;28;20095;-48
2023/12/30 08:01:22;;;;;;;0.00;0.00;;;;;;;5.49;75.78;100579.16;15673616;28;20060;-49
2023/12/30 08:08:56;;;;;;;0.38;0.17;;;;;;;5.63;74.94;100597.00;15675336;28;20566;-45
2023/12/30 08:16:31;;;;;;;0.00;0.00;;;;;;;5.72;73.69;100592.41;15674839;28;20408;-47
2023/12/30 08:24:06;;;;;;;0.00;0.00;;;;;;;5.79;73.29;100591.50;15655311;28;20052;-49
2023/12/30 08:31:45;;;;;;;0.00;0.00;;;;;;;5.62;73.66;100598.81;15666519;28;20053;-49
2023/12/30 08:39:18;;;;;;;0.00;0.00;;;;;;;5.84;72.47;100599.78;15672963;28;20450;-49
2023/12/30 08:46:53;;;;;;;0.00;0.00;;;;;;;5.91;72.29;100613.19;15670554;28;20041;-48
2023/12/30 08:54:26;;;;;;;0.00;0.00;;;;;;;6.05;71.32;100620.38;15672436;28;20072;-51
2023/12/30 09:02:01;;;;;;;0.00;0.00;;;;;;;6.27;70.16;100625.81;15672558;28;20520;-50
2023/12/30 09:09:34;;;;;;;0.00;0.00;;;;;;;6.35;70.33;100623.88;15670262;28;20041;-48
2023/12/30 09:17:09;;;;;;;0.00;0.00;;;;;;;6.51;69.92;100633.50;15670570;28;20069;-49
2023/12/30 09:24:43;;;;;;;0.55;0.55;;;;;;;6.49;69.66;100651.53;15671142;28;20466;-50
2023/12/30 09:32:17;;;;;;;0.00;0.00;;;;;;;6.73;68.99;100665.56;15670171;28;20077;-46
2023/12/30 09:39:53;;;;;;;0.08;0.08;;;;;;;6.77;68.04;100662.34;15669584;28;20059;-48
2023/12/30 09:47:30;;;;;;;0.00;0.00;;;;;;;7.12;68.33;100683.88;15669209;28;20106;-49
2023/12/30 09:55:05;;;;;;;0.00;0.00;;;;;;;6.80;68.91;100690.47;15669614;28;20113;-47
2023/12/30 10:02:40;;;;;;;0.00;0.00;;;;;;;7.25;67.70;100692.03;15668225;28;20064;-50
2023/12/30 10:10:14;;;;;;;0.00;0.00;;;;;;;6.94;69.06;100702.13;15668694;28;20037;-50
2023/12/30 10:17:49;;;;;;;0.00;0.00;;;;;;;7.08;68.48;100703.94;15669074;28;20090;-53
2023/12/30 10:25:26;;;;;;;0.40;0.40;;;;;;;7.42;67.20;100705.97;15667446;28;20045;-46
2023/12/30 10:33:08;;;;;;;0.15;0.15;;;;;;;7.06;68.57;100705.97;15667020;28;20047;-52
2023/12/30 10:40:43;;;;;;;0.00;0.00;;;;;;;7.23;68.22;100717.22;15664996;28;20033;-49
2023/12/30 10:48:21;;;;;;;1.13;0.20;;;;;;;7.37;66.81;100730.56;15667821;28;20119;-50
2023/12/30 10:55:59;;;;;;;0.05;0.05;;;;;;;7.23;67.24;100733.25;15668766;28;20501;-47
2023/12/30 11:03:35;;;;;;;0.00;0.00;;;;;;;7.36;66.98;100739.56;15662282;28;20533;-46
2023/12/30 11:11:12;;;;;;;0.00;0.00;;;;;;;7.78;66.41;100723.75;15666514;28;20045;-48
2023/12/30 11:18:49;;;;;;;0.00;0.00;;;;;;;7.77;65.42;100732.78;15666384;28;20076;-48
2023/12/30 11:26:22;;;;;;;0.00;0.00;;;;;;;7.61;66.23;100724.03;15664859;28;20041;-49
2023/12/30 11:33:59;;;;;;;0.00;0.00;;;;;;;7.53;66.97;100718.78;15667210;28;20049;-50
2023/12/30 11:41:33;;;;;;;0.00;0.00;;;;;;;7.70;66.32;100718.56;15677041;28;20045;-47
2023/12/30 11:49:07;;;;;;;0.00;0.00;;;;;;;7.57;66.48;100711.22;15675765;28;20113;-52
2023/12/30 11:56:41;;;;;;;0.00;0.00;;;;;;;7.83;65.77;100705.28;15674736;28;20090;-49
2023/12/30 12:04:16;;;;;;;0.00;0.00;;;;;;;7.57;66.29;100703.22;15655947;28;20370;-49
2023/12/30 12:11:49;;;;;;;0.00;0.00;;;;;;;7.46;66.46;100698.38;15674258;28;20080;-50
2023/12/30 12:19:26;;;;;;;0.00;0.00;;;;;;;7.86;65.31;100697.72;15674570;28;20544;-46
2023/12/30 12:26:59;;;;;;;0.00;0.00;;;;;;;7.64;66.16;100691.56;15659702;28;20397;-50
2023/12/30 12:34:35;;;;;;;0.00;0.00;;;;;;;7.57;66.15;100697.88;15674895;28;20613;-45
2023/12/30 12:42:08;;;;;;;0.00;0.00;;;;;;;7.69;65.99;100696.31;15652300;22;20046;-48
2023/12/30 12:49:44;;;;;;;0.00;0.00;;;;;;;7.79;65.84;100699.53;15603589;28;20053;-48
2023/12/30 12:57:18;;;;;;;13.15;1.48;;;;;;;7.78;64.86;100715.72;15621095;28;20125;-47
2023/12/30 13:04:52;;;;;;;0.50;0.50;;;;;;;7.74;65.82;100703.75;15603688;28;20092;-48
2023/12/30 13:12:27;;;;;;;0.00;0.00;;;;;;;7.72;65.36;100700.47;15620113;28;20498;-51
2023/12/30 13:20:03;;;;;;;0.10;0.10;;;;;;;7.66;65.79;100708.25;15619665;28;20482;-49
2023/12/30 13:27:36;;;;;;;0.00;0.00;;;;;;;7.78;65.83;100721.88;15618166;28;20148;-50
2023/12/30 13:35:11;;;;;;;0.43;0.22;;;;;;;7.70;65.46;100729.25;15608986;28;20037;-52
2023/12/30 13:42:45;;;;;;;0.20;0.20;;;;;;;7.68;65.12;100730.22;15592151;28;20095;-50
2023/12/30 13:50:29;;;;;;;;;;;;;;;7.54;65.39;100740.97;15602012;28;20422;-48
2023/12/30 13:58:05;;;;;;;0.00;0.00;;;;;;;7.64;65.42;100741.50;15612289;28;19921;-53
2023/12/30 14:05:44;;;;;;;0.00;0.00;;;;;;;7.24;66.38;100762.44;15598546;28;20033;-50
2023/12/30 14:13:19;;;;;;;0.00;0.00;;;;;;;7.33;66.19;100752.50;15617801;28;20417;-51
2023/12/30 14:20:55;;;;;;;0.00;0.00;;;;;;;7.67;64.62;100766.00;15620172;28;20049;-51
2023/12/30 14:28:28;;;;;;;0.00;0.00;;;;;;;7.80;64.11;100775.16;15619635;28;20363;-50
2023/12/30 14:36:04;;;;;;;0.00;0.00;;;;;;;7.53;65.13;100779.41;15616794;28;20042;-49
2023/12/30 14:43:38;;;;;;;0.00;0.00;;;;;;;7.34;66.38;100775.50;15607998;28;20231;-49
2023/12/30 14:51:12;;;;;;;;;;;;;;;7.38;65.46;100784.78;15596374;28;20141;-52
2023/12/30 14:58:49;;;;;;;0.00;0.00;;;;;;;7.33;65.60;100788.03;15613462;28;19921;-51
2023/12/30 15:06:24;;;;;;;0.00;0.00;;;;;;;7.58;64.50;100803.69;15613056;28;20046;-50
2023/12/30 15:13:59;;;;;;;0.00;0.00;;;;;;;7.63;64.35;100809.31;15620953;28;20053;-51
2023/12/30 15:21:35;;;;;;;0.00;0.00;;;;;;;7.55;64.47;100812.91;15622812;28;20328;-51
2023/12/30 15:29:09;;;;;;;0.20;0.20;;;;;;;7.45;64.74;100828.41;15623783;28;20072;-50
2023/12/30 15:36:43;;;;;;;0.00;0.00;;;;;;;7.42;64.77;100834.13;15605806;28;20461;-50
2023/12/30 15:44:19;;;;;;;0.00;0.00;;;;;;;7.19;65.97;100842.28;15605179;28;20053;-53
2023/12/30 15:51:57;;;;;;;0.00;0.00;;;;;;;7.24;65.42;100842.53;15605085;28;20492;-50
2023/12/30 15:59:31;;;;;;;0.00;0.00;;;;;;;6.74;67.28;100846.78;15609297;28;20376;-52
2023/12/30 16:07:06;;;;;;;0.35;0.35;;;;;;;6.83;67.32;100858.19;15621590;28;20411;-51
2023/12/30 16:14:40;;;;;;;0.10;0.10;;;;;;;6.89;67.05;100855.59;15622415;28;20046;-52
2023/12/30 16:22:17;;;;;;;0.15;0.13;;;;;;;6.96;66.84;100863.72;15619961;28;20406;-49
2023/12/30 16:29:50;;;;;;;0.00;0.00;;;;;;;7.00;66.32;100857.00;15621943;28;20431;-52
2023/12/30 16:37:25;;;;;;;0.00;0.00;;;;;;;7.04;66.55;100873.47;15619912;28;20045;-51
2023/12/30 16:44:59;;;;;;;0.00;0.00;;;;;;;7.03;66.73;100875.31;15585522;28;20085;-51
2023/12/30 16:52:36;;;;;;;0.05;0.05;;;;;;;6.97;66.93;100880.56;15619584;28;20064;-52
2023/12/30 17:00:11;;;;;;;0.00;0.00;;;;;;;6.72;67.35;100872.81;15597327;28;20071;-50
2023/12/30 17:07:47;;;;;;;0.00;0.00;;;;;;;6.87;67.67;100880.81;15610463;28;20034;-52
2023/12/30 17:15:21;;;;;;;0.00;0.00;;;;;;;6.88;67.24;100885.97;15617665;28;20037;-50
2023/12/30 17:22:59;;;;;;;0.10;0.10;;;;;;;6.97;66.90;100883.22;15598948;28;20212;-52
2023/12/30 17:30:34;;;;;;;0.03;0.03;;;;;;;6.80;66.55;100861.22;15622844;28;20124;-50
2023/12/30 17:38:09;;;;;;;0.00;0.00;;;;;;;6.85;66.83;100886.34;15620412;28;20091;-54
2023/12/30 17:45:43;;;;;;;0.25;0.20;;;;;;;6.62;67.94;100877.53;15603022;28;20041;-55
2023/12/30 17:53:18;;;;;;;0.00;0.00;;;;;;;6.54;67.91;100881.13;15617542;28;20497;-52
2023/12/30 18:00:53;;;;;;;1.35;0.30;;;;;;;6.37;68.62;100892.94;15598568;28;20560;-55
2023/12/30 18:08:28;;;;;;;0.00;0.00;;;;;;;6.34;69.16;100893.28;15616083;28;20049;-55
2023/12/30 18:16:03;;;;;;;1.55;1.23;;;;;;;6.17;69.28;100897.09;15615783;28;20037;-57
2023/12/30 18:23:38;;;;;;;0.03;0.03;;;;;;;6.09;70.20;100900.66;15596986;28;20080;-56
2023/12/30 18:31:15;;;;;;;0.13;0.13;;;;;;;6.22;69.91;100892.06;15614517;28;20038;-53
2023/12/30 18:38:49;;;;;;;0.35;0.35;;;;;;;6.13;69.99;100897.44;15655367;22;20048;-49
2023/12/30 18:46:23;;;;;;;0.05;0.05;;;;;;;6.22;70.52;100898.22;15700492;28;20527;-47
2023/12/30 18:53:57;;;;;;;0.10;0.10;;;;;;;5.43;73.02;100894.00;15726960;28;20044;-50
2023/12/30 19:01:31;;;;;;;0.00;0.00;;;;;;;5.93;71.32;100885.59;15729673;28;20508;-50
2023/12/30 19:09:05;;;;;;;1.55;1.17;;;;;;;5.78;71.54;100888.16;15725918;28;20059;-48
2023/12/30 19:16:39;;;;;;;0.00;0.00;;;;;;;6.21;70.34;100885.09;15740495;28;20071;-48
2023/12/30 19:24:15;;;;;;;0.65;0.65;;;;;;;5.93;70.59;100893.59;15739266;28;20068;-49
2023/12/30 19:31:48;;;;;;;0.00;0.00;;;;;;;6.18;69.66;100882.75;15747508;28;20136;-47
2023/12/30 19:39:23;;;;;;;0.00;0.00;;;;;;;6.07;69.59;100897.34;15737078;28;20044;-50
2023/12/30 19:46:56;;;;;;;0.17;0.17;;;;;;;5.92;69.81;100894.56;15727565;28;20044;-50
2023/12/30 19:54:31;;;;;;;;;;;;;;;5.91;69.68;100900.88;15747213;28;20528;-48
2023/12/30 20:02:04;;;;;;;1.75;0.98;;;;;;;5.94;69.44;100897.91;15741634;28;19927;-48
2023/12/30 20:09:39;;;;;;;;;;;;;;;5.99;69.32;100906.19;15735754;28;20037;-49
2023/12/30 20:17:16;;;;;;;0.10;0.10;;;;;;;6.06;69.71;100904.50;15727244;28;19931;-49
2023/12/30 20:24:50;;;;;;;0.10;0.10;;;;;;;6.16;70.25;100898.13;15745897;28;20098;-48
2023/12/30 20:32:25;;;;;;;0.10;0.10;;;;;;;6.33;69.96;100894.31;15727929;28;20317;-53
2023/12/30 20:40:00;;;;;;;0.00;0.00;;;;;;;6.47;69.44;100895.34;15740329;28;20110;-47
2023/12/30 20:47:39;;;;;;;0.28;0.28;;;;;;;6.56;68.94;100883.63;15718478;28;20126;-50
2023/12/30 20:55:15;;;;;;;0.00;0.00;;;;;;;6.58;68.57;100881.63;15743012;28;20049;-50
2023/12/30 21:02:49;;;;;;;0.00;0.00;;;;;;;6.64;68.53;100878.22;15737802;28;20041;-49
2023/12/30 21:10:24;;;;;;;0.55;0.25;;;;;;;6.68;69.25;100874.19;15736694;28;20516;-47
2023/12/30 21:17:57;;;;;;;0.00;0.00;;;;;;;6.68;68.62;100841.34;15735259;28;20047;-47
2023/12/30 21:25:32;;;;;;;0.98;0.63;;;;;;;6.46;70.88;100877.72;15724427;28;20048;-46
2023/12/30 21:33:07;;;;;;;0.00;0.00;;;;;;;6.62;70.51;100853.53;15717651;28;20097;-51
2023/12/30 21:40:43;;;;;;;0.55;0.52;;;;;;;6.62;70.94;100870.41;15739243;28;20281;-50
2023/12/30 21:48:17;;;;;;;0.00;0.00;;;;;;;6.82;70.44;100868.03;15719585;28;20096;-46
2023/12/30 21:55:54;;;;;;;0.20;0.20;;;;;;;6.86;70.92;100866.66;15703691;28;20057;-46
2023/12/30 22:03:28;;;;;;;0.15;0.15;;;;;;;6.82;71.10;100868.03;15717619;28;20486;-50
2023/12/30 22:11:03;;;;;;;;;;;;;;;7.14;69.95;100858.03;15735190;28;20060;-49
2023/12/30 22:18:37;;;;;;;0.00;0.00;;;;;;;6.82;71.72;100849.34;15731023;28;20277;-51
2023/12/30 22:26:12;;;;;;;0.00;0.00;;;;;;;7.02;71.19;100844.28;15698477;28;20526;-50
2023/12/30 22:33:48;;;;;;;0.00;0.00;;;;;;;7.19;70.54;100844.13;15697786;28;20098;-48
2023/12/30 22:41:23;;;;;;;0.10;0.10;;;;;;;7.28;70.12;100837.66;15697264;28;20479;-45
2023/12/30 22:48:58;;;;;;;0.00;0.00;;;;;;;7.28;70.36;100841.16;15731741;28;20055;-47
2023/12/30 22:56:33;;;;;;;0.10;0.10;;;;;;;7.54;69.85;100840.63;15734736;28;20052;-48
2023/12/30 23:04:07;;;;;;;0.13;0.13;;;;;;;7.48;69.97;100838.72;15708641;28;20056;-49
2023/12/30 23:11:42;;;;;;;0.25;0.25;;;;;;;6.56;73.82;100839.09;15704492;28;20102;-49
2023/12/30 23:19:16;;;;;;;0.77;0.77;;;;;;;6.63;74.19;100824.03;15733565;28;20097;-46
2023/12/30 23:26:51;;;;;;;0.00;0.00;;;;;;;6.81;73.88;100817.53;15726091;28;20075;-48
2023/12/30 23:34:24;;;;;;;0.10;0.10;;;;;;;6.82;73.41;100800.50;15734571;28;20052;-49
2023/12/30 23:41:58;;;;;;;0.10;0.10;;;;;;;7.19;73.26;100807.56;15723222;28;20482;-49
2023/12/30 23:49:32;;;;;;;0.25;0.25;;;;;;;6.67;75.02;100799.66;15736604;28;20143;-47
2023/12/30 23:57:08;;;;;;;0.55;0.55;;;;;;;6.91;73.95;100796.75;15743658;28;20036;-47
